sensor_id;sensor_type;location;lat;lon;timestamp;P1;durP1;ratioP1;P2;durP2;ratioP2
34142;SDS011;20419;10.658;106.724;2023-04-24T00:01:07;7.03;;;6.18;;
34142;SDS011;20419;10.658;106.724;2023-04-24T00:03:34;6.63;;;5.93;;
34142;SDS011;20419;10.658;106.724;2023-04-24T00:06:01;7.28;;;6.55;;
34142;SDS011;20419;10.658;106.724;2023-04-24T00:08:28;7.82;;;6.60;;
34142;SDS011;20419;10.658;106.724;2023-04-24T00:10:55;7.43;;;6.63;;
34142;SDS011;20419;10.658;106.724;2023-04-24T00:13:22;6.47;;;5.88;;
34142;SDS011;20419;10.658;106.724;2023-04-24T00:15:49;7.85;;;7.05;;
34142;SDS011;20419;10.658;106.724;2023-04-24T00:18:15;8.13;;;6.13;;
34142;SDS011;20419;10.658;106.724;2023-04-24T00:20:42;7.65;;;6.57;;
34142;SDS011;20419;10.658;106.724;2023-04-24T00:23:09;7.45;;;6.15;;
34142;SDS011;20419;10.658;106.724;2023-04-24T00:25:36;7.30;;;6.18;;
34142;SDS011;20419;10.658;106.724;2023-04-24T00:28:03;7.35;;;6.65;;
34142;SDS011;20419;10.658;106.724;2023-04-24T00:30:31;8.32;;;6.50;;
34142;SDS011;20419;10.658;106.724;2023-04-24T00:32:58;7.13;;;6.40;;
34142;SDS011;20419;10.658;106.724;2023-04-24T00:35:24;8.52;;;6.97;;
34142;SDS011;20419;10.658;106.724;2023-04-24T00:37:51;7.03;;;6.32;;
34142;SDS011;20419;10.658;106.724;2023-04-24T00:40:21;6.80;;;6.10;;
34142;SDS011;20419;10.658;106.724;2023-04-24T00:42:48;7.30;;;6.32;;
34142;SDS011;20419;10.658;106.724;2023-04-24T00:45:15;7.75;;;6.68;;
34142;SDS011;20419;10.658;106.724;2023-04-24T00:47:42;7.43;;;6.22;;
34142;SDS011;20419;10.658;106.724;2023-04-24T00:50:09;8.70;;;7.03;;
34142;SDS011;20419;10.658;106.724;2023-04-24T00:52:38;6.88;;;6.13;;
34142;SDS011;20419;10.658;106.724;2023-04-24T00:55:06;7.85;;;6.25;;
34142;SDS011;20419;10.658;106.724;2023-04-24T00:57:33;7.20;;;6.30;;
34142;SDS011;20419;10.658;106.724;2023-04-24T01:00:01;7.30;;;6.35;;
34142;SDS011;20419;10.658;106.724;2023-04-24T01:02:28;7.88;;;7.00;;
34142;SDS011;20419;10.658;106.724;2023-04-24T01:04:55;7.15;;;6.45;;
34142;SDS011;20419;10.658;106.724;2023-04-24T01:07:22;7.07;;;6.35;;
34142;SDS011;20419;10.658;106.724;2023-04-24T01:09:49;7.93;;;6.60;;
34142;SDS011;20419;10.658;106.724;2023-04-24T01:12:17;6.95;;;6.20;;
34142;SDS011;20419;10.658;106.724;2023-04-24T01:14:44;7.40;;;6.15;;
34142;SDS011;20419;10.658;106.724;2023-04-24T01:17:11;7.30;;;6.40;;
34142;SDS011;20419;10.658;106.724;2023-04-24T01:19:38;7.13;;;6.40;;
34142;SDS011;20419;10.658;106.724;2023-04-24T01:22:14;7.50;;;6.68;;
34142;SDS011;20419;10.658;106.724;2023-04-24T01:24:42;6.68;;;5.95;;
34142;SDS011;20419;10.658;106.724;2023-04-24T01:27:09;6.32;;;5.43;;
34142;SDS011;20419;10.658;106.724;2023-04-24T01:29:36;9.57;;;6.85;;
34142;SDS011;20419;10.658;106.724;2023-04-24T01:32:04;7.30;;;6.32;;
34142;SDS011;20419;10.658;106.724;2023-04-24T01:34:31;6.30;;;5.57;;
34142;SDS011;20419;10.658;106.724;2023-04-24T01:36:58;6.75;;;6.05;;
34142;SDS011;20419;10.658;106.724;2023-04-24T01:39:25;7.05;;;6.35;;
34142;SDS011;20419;10.658;106.724;2023-04-24T01:41:54;7.25;;;6.25;;
34142;SDS011;20419;10.658;106.724;2023-04-24T01:44:21;6.35;;;5.75;;
34142;SDS011;20419;10.658;106.724;2023-04-24T01:46:48;7.55;;;6.25;;
34142;SDS011;20419;10.658;106.724;2023-04-24T01:49:15;6.60;;;5.90;;
34142;SDS011;20419;10.658;106.724;2023-04-24T01:51:41;7.82;;;6.50;;
34142;SDS011;20419;10.658;106.724;2023-04-24T01:54:08;6.72;;;6.00;;
34142;SDS011;20419;10.658;106.724;2023-04-24T01:56:35;6.75;;;5.57;;
34142;SDS011;20419;10.658;106.724;2023-04-24T01:59:03;6.75;;;6.05;;
34142;SDS011;20419;10.658;106.724;2023-04-24T02:01:33;6.38;;;5.70;;
34142;SDS011;20419;10.658;106.724;2023-04-24T02:04:06;7.85;;;6.35;;
34142;SDS011;20419;10.658;106.724;2023-04-24T02:06:34;6.25;;;5.65;;
34142;SDS011;20419;10.658;106.724;2023-04-24T02:09:00;6.95;;;6.25;;
34142;SDS011;20419;10.658;106.724;2023-04-24T02:11:28;6.18;;;5.43;;
34142;SDS011;20419;10.658;106.724;2023-04-24T02:13:55;6.68;;;5.97;;
34142;SDS011;20419;10.658;106.724;2023-04-24T02:16:22;6.30;;;5.70;;
34142;SDS011;20419;10.658;106.724;2023-04-24T02:18:49;6.65;;;5.95;;
34142;SDS011;20419;10.658;106.724;2023-04-24T02:21:16;6.68;;;5.97;;
34142;SDS011;20419;10.658;106.724;2023-04-24T02:23:42;6.45;;;5.80;;
34142;SDS011;20419;10.658;106.724;2023-04-24T02:26:09;6.75;;;6.05;;
34142;SDS011;20419;10.658;106.724;2023-04-24T02:28:36;6.38;;;5.78;;
34142;SDS011;20419;10.658;106.724;2023-04-24T02:31:03;6.18;;;5.57;;
34142;SDS011;20419;10.658;106.724;2023-04-24T02:33:31;7.10;;;5.90;;
34142;SDS011;20419;10.658;106.724;2023-04-24T02:35:58;7.97;;;6.00;;
34142;SDS011;20419;10.658;106.724;2023-04-24T02:38:28;6.68;;;5.97;;
34142;SDS011;20419;10.658;106.724;2023-04-24T02:40:55;6.55;;;5.85;;
34142;SDS011;20419;10.658;106.724;2023-04-24T02:43:22;6.57;;;5.72;;
34142;SDS011;20419;10.658;106.724;2023-04-24T02:45:49;6.35;;;5.72;;
34142;SDS011;20419;10.658;106.724;2023-04-24T02:48:15;6.82;;;5.90;;
34142;SDS011;20419;10.658;106.724;2023-04-24T02:50:42;6.85;;;5.72;;
34142;SDS011;20419;10.658;106.724;2023-04-24T02:53:09;6.45;;;5.60;;
34142;SDS011;20419;10.658;106.724;2023-04-24T02:55:36;7.13;;;5.18;;
34142;SDS011;20419;10.658;106.724;2023-04-24T02:58:03;6.53;;;5.93;;
34142;SDS011;20419;10.658;106.724;2023-04-24T03:00:31;6.78;;;6.03;;
34142;SDS011;20419;10.658;106.724;2023-04-24T03:03:01;6.70;;;5.75;;
34142;SDS011;20419;10.658;106.724;2023-04-24T03:05:28;5.70;;;5.05;;
34142;SDS011;20419;10.658;106.724;2023-04-24T03:07:56;6.65;;;5.93;;
34142;SDS011;20419;10.658;106.724;2023-04-24T03:10:23;6.20;;;5.28;;
34142;SDS011;20419;10.658;106.724;2023-04-24T03:12:50;6.13;;;5.22;;
34142;SDS011;20419;10.658;106.724;2023-04-24T03:15:17;7.03;;;5.68;;
34142;SDS011;20419;10.658;106.724;2023-04-24T03:17:43;6.20;;;5.57;;
34142;SDS011;20419;10.658;106.724;2023-04-24T03:20:10;6.55;;;5.40;;
34142;SDS011;20419;10.658;106.724;2023-04-24T03:22:37;7.68;;;5.82;;
34142;SDS011;20419;10.658;106.724;2023-04-24T03:25:04;5.97;;;5.13;;
34142;SDS011;20419;10.658;106.724;2023-04-24T03:27:31;5.30;;;4.68;;
34142;SDS011;20419;10.658;106.724;2023-04-24T03:29:58;5.80;;;5.20;;
34142;SDS011;20419;10.658;106.724;2023-04-24T03:32:26;5.77;;;5.13;;
34142;SDS011;20419;10.658;106.724;2023-04-24T03:34:53;5.90;;;5.28;;
34142;SDS011;20419;10.658;106.724;2023-04-24T03:37:20;6.32;;;5.50;;
34142;SDS011;20419;10.658;106.724;2023-04-24T03:39:46;6.97;;;5.88;;
34142;SDS011;20419;10.658;106.724;2023-04-24T03:42:13;6.00;;;5.05;;
34142;SDS011;20419;10.658;106.724;2023-04-24T03:44:40;6.82;;;5.55;;
34142;SDS011;20419;10.658;106.724;2023-04-24T03:47:07;6.82;;;5.88;;
34142;SDS011;20419;10.658;106.724;2023-04-24T03:49:34;6.32;;;5.38;;
34142;SDS011;20419;10.658;106.724;2023-04-24T03:52:01;6.25;;;5.35;;
34142;SDS011;20419;10.658;106.724;2023-04-24T03:54:27;7.07;;;6.13;;
34142;SDS011;20419;10.658;106.724;2023-04-24T03:56:54;5.82;;;5.13;;
34142;SDS011;20419;10.658;106.724;2023-04-24T03:59:21;6.45;;;5.35;;
34142;SDS011;20419;10.658;106.724;2023-04-24T04:01:48;6.57;;;5.20;;
34142;SDS011;20419;10.658;106.724;2023-04-24T04:04:15;5.75;;;5.00;;
34142;SDS011;20419;10.658;106.724;2023-04-24T04:06:42;6.20;;;5.50;;
34142;SDS011;20419;10.658;106.724;2023-04-24T04:09:09;6.97;;;5.95;;
34142;SDS011;20419;10.658;106.724;2023-04-24T04:11:36;6.53;;;5.80;;
34142;SDS011;20419;10.658;106.724;2023-04-24T04:14:03;7.10;;;5.50;;
34142;SDS011;20419;10.658;106.724;2023-04-24T04:16:30;6.43;;;5.55;;
34142;SDS011;20419;10.658;106.724;2023-04-24T04:18:57;5.68;;;5.07;;
34142;SDS011;20419;10.658;106.724;2023-04-24T04:21:24;5.97;;;5.32;;
34142;SDS011;20419;10.658;106.724;2023-04-24T04:23:52;6.13;;;5.43;;
34142;SDS011;20419;10.658;106.724;2023-04-24T04:26:19;6.32;;;5.45;;
34142;SDS011;20419;10.658;106.724;2023-04-24T04:28:46;8.02;;;6.28;;
34142;SDS011;20419;10.658;106.724;2023-04-24T04:31:14;6.70;;;6.00;;
34142;SDS011;20419;10.658;106.724;2023-04-24T04:33:41;6.50;;;5.82;;
34142;SDS011;20419;10.658;106.724;2023-04-24T04:36:07;6.38;;;5.55;;
34142;SDS011;20419;10.658;106.724;2023-04-24T04:38:34;6.50;;;5.50;;
34142;SDS011;20419;10.658;106.724;2023-04-24T04:41:02;7.40;;;6.03;;
34142;SDS011;20419;10.658;106.724;2023-04-24T04:43:29;6.63;;;5.78;;
34142;SDS011;20419;10.658;106.724;2023-04-24T04:45:57;6.40;;;5.50;;
34142;SDS011;20419;10.658;106.724;2023-04-24T04:48:26;6.60;;;5.65;;
34142;SDS011;20419;10.658;106.724;2023-04-24T04:50:54;6.22;;;5.63;;
34142;SDS011;20419;10.658;106.724;2023-04-24T04:53:20;6.53;;;5.57;;
34142;SDS011;20419;10.658;106.724;2023-04-24T04:55:47;7.45;;;6.43;;
34142;SDS011;20419;10.658;106.724;2023-04-24T04:58:14;6.90;;;5.78;;
34142;SDS011;20419;10.658;106.724;2023-04-24T05:00:41;7.05;;;5.47;;
34142;SDS011;20419;10.658;106.724;2023-04-24T05:03:08;6.10;;;5.28;;
34142;SDS011;20419;10.658;106.724;2023-04-24T05:05:35;6.82;;;5.53;;
34142;SDS011;20419;10.658;106.724;2023-04-24T05:08:08;6.38;;;5.32;;
34142;SDS011;20419;10.658;106.724;2023-04-24T05:10:35;7.88;;;5.55;;
34142;SDS011;20419;10.658;106.724;2023-04-24T05:13:02;6.05;;;5.45;;
34142;SDS011;20419;10.658;106.724;2023-04-24T05:15:30;7.03;;;5.47;;
34142;SDS011;20419;10.658;106.724;2023-04-24T05:17:57;6.18;;;5.30;;
34142;SDS011;20419;10.658;106.724;2023-04-24T05:20:24;6.93;;;5.80;;
34142;SDS011;20419;10.658;106.724;2023-04-24T05:22:50;7.63;;;6.45;;
34142;SDS011;20419;10.658;106.724;2023-04-24T05:25:17;6.70;;;6.00;;
34142;SDS011;20419;10.658;106.724;2023-04-24T05:27:44;6.53;;;5.70;;
34142;SDS011;20419;10.658;106.724;2023-04-24T05:30:11;5.95;;;5.38;;
34142;SDS011;20419;10.658;106.724;2023-04-24T05:32:38;6.68;;;5.88;;
34142;SDS011;20419;10.658;106.724;2023-04-24T05:35:05;6.80;;;6.10;;
34142;SDS011;20419;10.658;106.724;2023-04-24T05:37:32;7.10;;;6.10;;
34142;SDS011;20419;10.658;106.724;2023-04-24T05:39:59;6.70;;;5.88;;
34142;SDS011;20419;10.658;106.724;2023-04-24T05:42:25;6.90;;;6.20;;
34142;SDS011;20419;10.658;106.724;2023-04-24T05:44:52;6.18;;;5.57;;
34142;SDS011;20419;10.658;106.724;2023-04-24T05:47:19;6.25;;;5.63;;
34142;SDS011;20419;10.658;106.724;2023-04-24T05:49:47;6.90;;;5.82;;
34142;SDS011;20419;10.658;106.724;2023-04-24T05:52:14;6.82;;;6.13;;
34142;SDS011;20419;10.658;106.724;2023-04-24T05:54:41;6.80;;;6.10;;
34142;SDS011;20419;10.658;106.724;2023-04-24T05:57:07;6.72;;;5.95;;
34142;SDS011;20419;10.658;106.724;2023-04-24T05:59:36;6.40;;;5.75;;
34142;SDS011;20419;10.658;106.724;2023-04-24T06:02:07;6.28;;;5.65;;
34142;SDS011;20419;10.658;106.724;2023-04-24T06:04:33;6.82;;;6.00;;
34142;SDS011;20419;10.658;106.724;2023-04-24T06:07:00;6.90;;;6.20;;
34142;SDS011;20419;10.658;106.724;2023-04-24T06:09:28;5.88;;;5.28;;
34142;SDS011;20419;10.658;106.724;2023-04-24T06:11:55;6.13;;;5.50;;
34142;SDS011;20419;10.658;106.724;2023-04-24T06:14:21;6.60;;;5.80;;
34142;SDS011;20419;10.658;106.724;2023-04-24T06:16:48;7.15;;;6.43;;
34142;SDS011;20419;10.658;106.724;2023-04-24T06:19:15;6.95;;;6.10;;
34142;SDS011;20419;10.658;106.724;2023-04-24T06:21:42;6.72;;;5.80;;
34142;SDS011;20419;10.658;106.724;2023-04-24T06:24:08;7.53;;;6.43;;
34142;SDS011;20419;10.658;106.724;2023-04-24T06:26:35;7.25;;;6.47;;
34142;SDS011;20419;10.658;106.724;2023-04-24T06:29:02;6.20;;;5.45;;
34142;SDS011;20419;10.658;106.724;2023-04-24T06:31:29;6.70;;;5.90;;
34142;SDS011;20419;10.658;106.724;2023-04-24T06:33:56;6.95;;;6.25;;
34142;SDS011;20419;10.658;106.724;2023-04-24T06:36:22;8.88;;;7.55;;
34142;SDS011;20419;10.658;106.724;2023-04-24T06:38:49;7.05;;;6.32;;
34142;SDS011;20419;10.658;106.724;2023-04-24T06:41:16;7.30;;;6.40;;
34142;SDS011;20419;10.658;106.724;2023-04-24T06:43:42;7.30;;;6.00;;
34142;SDS011;20419;10.658;106.724;2023-04-24T06:46:10;7.55;;;6.85;;
34142;SDS011;20419;10.658;106.724;2023-04-24T06:48:37;7.68;;;6.78;;
34142;SDS011;20419;10.658;106.724;2023-04-24T06:51:04;7.88;;;7.07;;
34142;SDS011;20419;10.658;106.724;2023-04-24T06:53:31;7.70;;;6.90;;
34142;SDS011;20419;10.658;106.724;2023-04-24T06:55:58;7.68;;;6.90;;
34142;SDS011;20419;10.658;106.724;2023-04-24T06:58:25;8.35;;;7.30;;
34142;SDS011;20419;10.658;106.724;2023-04-24T07:00:52;8.88;;;7.05;;
34142;SDS011;20419;10.658;106.724;2023-04-24T07:03:18;7.43;;;6.65;;
34142;SDS011;20419;10.658;106.724;2023-04-24T07:05:45;7.97;;;7.18;;
34142;SDS011;20419;10.658;106.724;2023-04-24T07:08:13;7.80;;;6.53;;
34142;SDS011;20419;10.658;106.724;2023-04-24T07:10:42;9.45;;;7.25;;
34142;SDS011;20419;10.658;106.724;2023-04-24T07:13:09;7.78;;;6.97;;
34142;SDS011;20419;10.658;106.724;2023-04-24T07:15:36;8.18;;;7.30;;
34142;SDS011;20419;10.658;106.724;2023-04-24T07:18:02;7.97;;;7.13;;
34142;SDS011;20419;10.658;106.724;2023-04-24T07:20:29;7.07;;;6.38;;
34142;SDS011;20419;10.658;106.724;2023-04-24T07:22:56;7.43;;;6.63;;
34142;SDS011;20419;10.658;106.724;2023-04-24T07:25:23;7.35;;;6.63;;
34142;SDS011;20419;10.658;106.724;2023-04-24T07:27:49;8.60;;;7.53;;
34142;SDS011;20419;10.658;106.724;2023-04-24T07:30:16;7.88;;;7.07;;
34142;SDS011;20419;10.658;106.724;2023-04-24T07:32:43;7.93;;;7.13;;
34142;SDS011;20419;10.658;106.724;2023-04-24T07:35:10;8.48;;;7.40;;
34142;SDS011;20419;10.658;106.724;2023-04-24T07:37:36;7.97;;;7.20;;
34142;SDS011;20419;10.658;106.724;2023-04-24T07:40:03;8.27;;;7.43;;
34142;SDS011;20419;10.658;106.724;2023-04-24T07:42:30;8.75;;;7.63;;
34142;SDS011;20419;10.658;106.724;2023-04-24T07:44:59;8.18;;;7.38;;
34142;SDS011;20419;10.658;106.724;2023-04-24T07:47:26;8.07;;;7.28;;
34142;SDS011;20419;10.658;106.724;2023-04-24T07:49:53;7.93;;;7.13;;
34142;SDS011;20419;10.658;106.724;2023-04-24T07:52:23;8.32;;;7.50;;
34142;SDS011;20419;10.658;106.724;2023-04-24T07:54:50;8.25;;;7.35;;
34142;SDS011;20419;10.658;106.724;2023-04-24T07:57:24;7.88;;;7.07;;
34142;SDS011;20419;10.658;106.724;2023-04-24T07:59:50;7.70;;;6.72;;
34142;SDS011;20419;10.658;106.724;2023-04-24T08:02:17;7.63;;;6.88;;
34142;SDS011;20419;10.658;106.724;2023-04-24T08:04:44;8.27;;;7.45;;
34142;SDS011;20419;10.658;106.724;2023-04-24T08:07:11;7.82;;;7.03;;
34142;SDS011;20419;10.658;106.724;2023-04-24T08:09:38;8.38;;;7.47;;
34142;SDS011;20419;10.658;106.724;2023-04-24T08:12:05;7.90;;;7.10;;
34142;SDS011;20419;10.658;106.724;2023-04-24T08:14:32;7.55;;;6.75;;
34142;SDS011;20419;10.658;106.724;2023-04-24T08:16:59;7.78;;;6.80;;
34142;SDS011;20419;10.658;106.724;2023-04-24T08:19:27;8.52;;;6.65;;
34142;SDS011;20419;10.658;106.724;2023-04-24T08:21:54;7.53;;;6.65;;
34142;SDS011;20419;10.658;106.724;2023-04-24T08:24:21;7.72;;;6.93;;
34142;SDS011;20419;10.658;106.724;2023-04-24T08:26:48;7.22;;;6.05;;
34142;SDS011;20419;10.658;106.724;2023-04-24T08:29:16;7.88;;;7.07;;
34142;SDS011;20419;10.658;106.724;2023-04-24T08:31:43;7.80;;;6.90;;
34142;SDS011;20419;10.658;106.724;2023-04-24T08:34:10;9.20;;;7.22;;
34142;SDS011;20419;10.658;106.724;2023-04-24T08:36:37;8.48;;;7.13;;
34142;SDS011;20419;10.658;106.724;2023-04-24T08:39:06;7.85;;;7.05;;
34142;SDS011;20419;10.658;106.724;2023-04-24T08:41:33;8.18;;;7.38;;
34142;SDS011;20419;10.658;106.724;2023-04-24T08:44:01;7.40;;;6.60;;
34142;SDS011;20419;10.658;106.724;2023-04-24T08:46:29;7.82;;;6.72;;
34142;SDS011;20419;10.658;106.724;2023-04-24T08:48:56;7.43;;;6.63;;
34142;SDS011;20419;10.658;106.724;2023-04-24T08:51:24;7.18;;;6.47;;
34142;SDS011;20419;10.658;106.724;2023-04-24T08:56:19;7.40;;;6.65;;
34142;SDS011;20419;10.658;106.724;2023-04-24T08:58:50;7.68;;;6.88;;
34142;SDS011;20419;10.658;106.724;2023-04-24T09:01:17;8.40;;;7.10;;
34142;SDS011;20419;10.658;106.724;2023-04-24T09:03:45;7.25;;;6.55;;
34142;SDS011;20419;10.658;106.724;2023-04-24T09:06:13;7.43;;;6.73;;
34142;SDS011;20419;10.658;106.724;2023-04-24T09:08:40;8.25;;;7.18;;
34142;SDS011;20419;10.658;106.724;2023-04-24T09:11:07;9.00;;;6.53;;
34142;SDS011;20419;10.658;106.724;2023-04-24T09:13:35;8.02;;;7.10;;
34142;SDS011;20419;10.658;106.724;2023-04-24T09:16:01;8.68;;;6.32;;
34142;SDS011;20419;10.658;106.724;2023-04-24T09:18:28;7.28;;;6.50;;
34142;SDS011;20419;10.658;106.724;2023-04-24T09:21:02;7.43;;;6.63;;
34142;SDS011;20419;10.658;106.724;2023-04-24T09:23:30;7.30;;;6.60;;
34142;SDS011;20419;10.658;106.724;2023-04-24T09:25:58;7.63;;;6.82;;
34142;SDS011;20419;10.658;106.724;2023-04-24T09:28:26;7.22;;;6.43;;
34142;SDS011;20419;10.658;106.724;2023-04-24T09:31:09;7.47;;;6.57;;
34142;SDS011;20419;10.658;106.724;2023-04-24T09:33:53;7.78;;;6.88;;
34142;SDS011;20419;10.658;106.724;2023-04-24T09:36:28;7.00;;;6.28;;
34142;SDS011;20419;10.658;106.724;2023-04-24T09:38:58;6.65;;;5.85;;
34142;SDS011;20419;10.658;106.724;2023-04-24T09:41:25;9.18;;;6.55;;
34142;SDS011;20419;10.658;106.724;2023-04-24T09:43:56;7.05;;;6.35;;
34142;SDS011;20419;10.658;106.724;2023-04-24T09:46:29;7.22;;;6.30;;
34142;SDS011;20419;10.658;106.724;2023-04-24T09:49:12;7.93;;;6.45;;
34142;SDS011;20419;10.658;106.724;2023-04-24T09:51:39;7.20;;;6.50;;
34142;SDS011;20419;10.658;106.724;2023-04-24T09:54:15;7.50;;;6.20;;
34142;SDS011;20419;10.658;106.724;2023-04-24T09:56:47;6.97;;;5.80;;
34142;SDS011;20419;10.658;106.724;2023-04-24T09:59:15;7.53;;;6.25;;
34142;SDS011;20419;10.658;106.724;2023-04-24T10:01:41;8.57;;;5.90;;
34142;SDS011;20419;10.658;106.724;2023-04-24T10:04:18;7.43;;;6.32;;
34142;SDS011;20419;10.658;106.724;2023-04-24T10:06:46;7.63;;;6.28;;
34142;SDS011;20419;10.658;106.724;2023-04-24T10:11:44;6.80;;;5.70;;
34142;SDS011;20419;10.658;106.724;2023-04-24T10:14:15;7.65;;;6.43;;
34142;SDS011;20419;10.658;106.724;2023-04-24T10:16:42;7.32;;;6.30;;
34142;SDS011;20419;10.658;106.724;2023-04-24T10:19:09;6.55;;;5.60;;
34142;SDS011;20419;10.658;106.724;2023-04-24T10:21:39;8.65;;;6.00;;
34142;SDS011;20419;10.658;106.724;2023-04-24T10:24:12;6.40;;;5.57;;
34142;SDS011;20419;10.658;106.724;2023-04-24T10:26:39;6.68;;;5.75;;
34142;SDS011;20419;10.658;106.724;2023-04-24T10:29:06;7.03;;;6.05;;
34142;SDS011;20419;10.658;106.724;2023-04-24T10:31:38;6.22;;;5.30;;
34142;SDS011;20419;10.658;106.724;2023-04-24T10:34:05;6.55;;;5.90;;
34142;SDS011;20419;10.658;106.724;2023-04-24T10:36:33;7.23;;;6.00;;
34142;SDS011;20419;10.658;106.724;2023-04-24T10:39:01;6.35;;;5.75;;
34142;SDS011;20419;10.658;106.724;2023-04-24T10:41:30;6.40;;;5.50;;
34142;SDS011;20419;10.658;106.724;2023-04-24T10:44:06;6.65;;;5.43;;
34142;SDS011;20419;10.658;106.724;2023-04-24T10:46:33;8.73;;;6.53;;
34142;SDS011;20419;10.658;106.724;2023-04-24T10:49:03;6.40;;;5.55;;
34142;SDS011;20419;10.658;106.724;2023-04-24T10:51:50;6.07;;;5.22;;
34142;SDS011;20419;10.658;106.724;2023-04-24T10:59:46;6.80;;;6.10;;
34142;SDS011;20419;10.658;106.724;2023-04-24T11:02:16;7.20;;;5.88;;
34142;SDS011;20419;10.658;106.724;2023-04-24T11:04:43;6.85;;;5.70;;
34142;SDS011;20419;10.658;106.724;2023-04-24T11:07:10;7.07;;;5.88;;
34142;SDS011;20419;10.658;106.724;2023-04-24T11:09:37;6.60;;;5.68;;
34142;SDS011;20419;10.658;106.724;2023-04-24T11:12:07;7.75;;;5.85;;
34142;SDS011;20419;10.658;106.724;2023-04-24T11:17:29;7.70;;;5.57;;
34142;SDS011;20419;10.658;106.724;2023-04-24T11:20:16;6.75;;;5.70;;
34142;SDS011;20419;10.658;106.724;2023-04-24T11:22:43;8.13;;;6.13;;
34142;SDS011;20419;10.658;106.724;2023-04-24T11:25:10;6.43;;;5.43;;
34142;SDS011;20419;10.658;106.724;2023-04-24T11:27:40;7.00;;;6.00;;
34142;SDS011;20419;10.658;106.724;2023-04-24T11:30:08;6.43;;;5.00;;
34142;SDS011;20419;10.658;106.724;2023-04-24T11:32:42;6.28;;;5.25;;
34142;SDS011;20419;10.658;106.724;2023-04-24T11:37:39;6.80;;;6.13;;
34142;SDS011;20419;10.658;106.724;2023-04-24T11:40:07;6.55;;;5.53;;
34142;SDS011;20419;10.658;106.724;2023-04-24T11:42:35;6.00;;;5.30;;
34142;SDS011;20419;10.658;106.724;2023-04-24T11:45:02;6.75;;;5.15;;
34142;SDS011;20419;10.658;106.724;2023-04-24T11:47:33;6.43;;;5.63;;
34142;SDS011;20419;10.658;106.724;2023-04-24T11:50:00;6.38;;;5.40;;
34142;SDS011;20419;10.658;106.724;2023-04-24T11:52:28;6.40;;;5.22;;
34142;SDS011;20419;10.658;106.724;2023-04-24T11:54:55;6.10;;;4.78;;
34142;SDS011;20419;10.658;106.724;2023-04-24T11:57:23;7.13;;;5.55;;
34142;SDS011;20419;10.658;106.724;2023-04-24T11:59:51;5.43;;;4.38;;
34142;SDS011;20419;10.658;106.724;2023-04-24T12:02:23;5.53;;;4.82;;
34142;SDS011;20419;10.658;106.724;2023-04-24T12:04:51;6.05;;;5.40;;
34142;SDS011;20419;10.658;106.724;2023-04-24T12:07:18;5.95;;;5.35;;
34142;SDS011;20419;10.658;106.724;2023-04-24T12:09:49;6.28;;;5.65;;
34142;SDS011;20419;10.658;106.724;2023-04-24T12:12:17;6.22;;;5.18;;
34142;SDS011;20419;10.658;106.724;2023-04-24T12:14:44;5.70;;;4.85;;
34142;SDS011;20419;10.658;106.724;2023-04-24T12:17:11;6.13;;;5.03;;
34142;SDS011;20419;10.658;106.724;2023-04-24T12:19:44;6.80;;;5.40;;
34142;SDS011;20419;10.658;106.724;2023-04-24T12:22:11;7.38;;;5.55;;
34142;SDS011;20419;10.658;106.724;2023-04-24T12:24:57;6.07;;;5.13;;
34142;SDS011;20419;10.658;106.724;2023-04-24T12:27:25;5.60;;;4.97;;
34142;SDS011;20419;10.658;106.724;2023-04-24T12:30:01;6.10;;;4.93;;
34142;SDS011;20419;10.658;106.724;2023-04-24T12:32:28;5.72;;;5.10;;
34142;SDS011;20419;10.658;106.724;2023-04-24T12:34:55;6.57;;;5.40;;
34142;SDS011;20419;10.658;106.724;2023-04-24T12:37:23;5.78;;;4.45;;
34142;SDS011;20419;10.658;106.724;2023-04-24T12:40:00;7.40;;;4.90;;
34142;SDS011;20419;10.658;106.724;2023-04-24T12:42:27;6.07;;;4.93;;
34142;SDS011;20419;10.658;106.724;2023-04-24T12:44:58;5.60;;;4.90;;
34142;SDS011;20419;10.658;106.724;2023-04-24T12:47:26;6.05;;;4.72;;
34142;SDS011;20419;10.658;106.724;2023-04-24T12:49:52;5.50;;;4.68;;
34142;SDS011;20419;10.658;106.724;2023-04-24T12:52:21;4.88;;;4.30;;
34142;SDS011;20419;10.658;106.724;2023-04-24T12:54:49;5.60;;;4.90;;
34142;SDS011;20419;10.658;106.724;2023-04-24T12:57:17;5.25;;;4.10;;
34142;SDS011;20419;10.658;106.724;2023-04-24T12:59:44;5.15;;;4.50;;
34142;SDS011;20419;10.658;106.724;2023-04-24T13:02:11;5.40;;;4.53;;
34142;SDS011;20419;10.658;106.724;2023-04-24T13:04:37;5.78;;;4.65;;
34142;SDS011;20419;10.658;106.724;2023-04-24T13:07:05;5.85;;;4.93;;
34142;SDS011;20419;10.658;106.724;2023-04-24T13:09:31;5.65;;;4.60;;
34142;SDS011;20419;10.658;106.724;2023-04-24T13:11:59;4.70;;;3.92;;
34142;SDS011;20419;10.658;106.724;2023-04-24T13:14:26;5.43;;;4.78;;
34142;SDS011;20419;10.658;106.724;2023-04-24T13:16:53;5.13;;;4.45;;
34142;SDS011;20419;10.658;106.724;2023-04-24T13:19:19;5.38;;;4.78;;
34142;SDS011;20419;10.658;106.724;2023-04-24T13:21:46;5.97;;;4.50;;
34142;SDS011;20419;10.658;106.724;2023-04-24T13:24:13;5.22;;;4.57;;
34142;SDS011;20419;10.658;106.724;2023-04-24T13:26:41;5.28;;;4.78;;
34142;SDS011;20419;10.658;106.724;2023-04-24T13:29:08;5.65;;;4.82;;
34142;SDS011;20419;10.658;106.724;2023-04-24T13:31:34;4.95;;;4.32;;
34142;SDS011;20419;10.658;106.724;2023-04-24T13:34:02;4.93;;;4.25;;
34142;SDS011;20419;10.658;106.724;2023-04-24T13:36:29;5.22;;;4.30;;
34142;SDS011;20419;10.658;106.724;2023-04-24T13:38:56;6.38;;;4.82;;
34142;SDS011;20419;10.658;106.724;2023-04-24T13:41:23;6.10;;;5.13;;
34142;SDS011;20419;10.658;106.724;2023-04-24T13:43:50;5.18;;;4.57;;
34142;SDS011;20419;10.658;106.724;2023-04-24T13:46:17;5.07;;;4.57;;
34142;SDS011;20419;10.658;106.724;2023-04-24T13:48:44;4.50;;;3.90;;
34142;SDS011;20419;10.658;106.724;2023-04-24T13:53:39;5.60;;;4.88;;
34142;SDS011;20419;10.658;106.724;2023-04-24T13:56:06;7.47;;;5.20;;
34142;SDS011;20419;10.658;106.724;2023-04-24T13:58:33;5.70;;;4.55;;
34142;SDS011;20419;10.658;106.724;2023-04-24T14:01:02;5.20;;;4.53;;
34142;SDS011;20419;10.658;106.724;2023-04-24T14:03:29;4.82;;;4.18;;
34142;SDS011;20419;10.658;106.724;2023-04-24T14:05:56;5.63;;;4.57;;
34142;SDS011;20419;10.658;106.724;2023-04-24T14:08:23;5.38;;;4.05;;
34142;SDS011;20419;10.658;106.724;2023-04-24T14:10:50;4.88;;;4.10;;
34142;SDS011;20419;10.658;106.724;2023-04-24T14:13:17;5.55;;;4.82;;
34142;SDS011;20419;10.658;106.724;2023-04-24T14:15:43;5.28;;;4.70;;
34142;SDS011;20419;10.658;106.724;2023-04-24T14:18:10;4.90;;;4.40;;
34142;SDS011;20419;10.658;106.724;2023-04-24T14:20:37;5.60;;;4.50;;
34142;SDS011;20419;10.658;106.724;2023-04-24T14:23:04;6.28;;;4.30;;
34142;SDS011;20419;10.658;106.724;2023-04-24T14:25:30;5.55;;;4.50;;
34142;SDS011;20419;10.658;106.724;2023-04-24T14:27:57;4.85;;;4.15;;
34142;SDS011;20419;10.658;106.724;2023-04-24T14:30:24;5.45;;;4.28;;
34142;SDS011;20419;10.658;106.724;2023-04-24T14:32:51;5.20;;;4.38;;
34142;SDS011;20419;10.658;106.724;2023-04-24T14:35:17;5.68;;;4.60;;
34142;SDS011;20419;10.658;106.724;2023-04-24T14:37:44;4.50;;;3.75;;
34142;SDS011;20419;10.658;106.724;2023-04-24T14:40:11;5.00;;;4.30;;
34142;SDS011;20419;10.658;106.724;2023-04-24T14:42:38;5.28;;;4.55;;